createdAt,value
2023-05-21T00:02:24.735Z,101254.58
2023-05-21T00:05:52.491Z,101253.35
2023-05-21T00:09:20.077Z,101249.21
2023-05-21T00:12:47.665Z,101249.25
2023-05-21T00:16:15.298Z,101249.05
2023-05-21T00:19:42.874Z,101250.03
2023-05-21T00:23:10.915Z,101254.17
2023-05-21T00:26:38.502Z,101258.90
2023-05-21T00:29:56.146Z,101260.77
2023-05-21T00:33:16.743Z,101254.23
2023-05-21T00:36:37.010Z,101258.42
2023-05-21T00:40:04.725Z,101262.23
2023-05-21T00:43:25.451Z,101255.52
2023-05-21T00:46:53.130Z,101257.04
2023-05-21T00:50:20.757Z,101256.39
2023-05-21T00:53:49.788Z,101259.28
2023-05-21T00:57:17.384Z,101268.64
2023-05-21T01:00:45.162Z,101267.62
2023-05-21T01:04:12.761Z,101261.80
2023-05-21T01:07:45.480Z,101257.39
2023-05-21T01:11:13.053Z,101258.66
2023-05-21T01:14:40.704Z,101261.48
2023-05-21T01:18:03.667Z,101257.73
2023-05-21T01:21:32.423Z,101257.04
2023-05-21T01:25:00.028Z,101255.91
2023-05-21T01:28:27.699Z,101249.64
2023-05-21T01:32:04.586Z,101249.20
2023-05-21T01:35:41.489Z,101246.63
2023-05-21T01:39:12.217Z,101243.67
2023-05-21T01:42:39.832Z,101245.94
2023-05-21T01:46:07.494Z,101247.98
2023-05-21T01:49:35.173Z,101251.80
2023-05-21T01:53:02.884Z,101248.31
2023-05-21T01:56:30.480Z,101250.99
2023-05-21T02:00:02.744Z,101251.31
2023-05-21T02:03:22.850Z,101249.02
2023-05-21T02:06:50.606Z,101249.30
2023-05-21T02:10:18.218Z,101247.54
2023-05-21T02:13:47.011Z,101249.36
2023-05-21T02:17:16.626Z,101248.48
2023-05-21T02:20:37.906Z,101245.36
2023-05-21T02:23:59.471Z,101243.27
2023-05-21T02:27:27.103Z,101244.21
2023-05-21T02:30:37.496Z,101243.86
2023-05-21T02:34:05.171Z,101244.19
2023-05-21T02:37:33.951Z,101250.62
2023-05-21T02:40:54.237Z,101248.21
2023-05-21T02:44:21.028Z,101249.45
2023-05-21T02:47:41.491Z,101247.02
2023-05-21T02:51:09.323Z,101242.85
2023-05-21T02:54:20.485Z,101241.54
2023-05-21T02:57:41.135Z,101241.55
2023-05-21T03:01:00.565Z,101241.86
2023-05-21T03:04:28.264Z,101244.30
2023-05-21T03:07:58.070Z,101242.68
2023-05-21T03:11:25.781Z,101243.03
2023-05-21T03:14:53.388Z,101245.89
2023-05-21T03:18:21.018Z,101256.73
2023-05-21T03:21:41.748Z,101256.00
2023-05-21T03:25:09.443Z,101265.80
2023-05-21T03:28:37.043Z,101271.23
2023-05-21T03:31:57.636Z,101271.64
2023-05-21T03:35:24.105Z,101270.09
2023-05-21T03:38:51.762Z,101273.13
2023-05-21T03:42:20.426Z,101271.90
2023-05-21T03:45:47.251Z,101269.95
2023-05-21T03:49:02.424Z,101269.35
2023-05-21T03:52:23.097Z,101266.35
2023-05-21T03:55:50.694Z,101264.63
2023-05-21T03:59:11.654Z,101270.18
2023-05-21T04:02:39.294Z,101268.73
2023-05-21T04:06:08.130Z,101269.08
2023-05-21T04:09:28.294Z,101267.84
2023-05-21T04:13:01.080Z,101275.14
2023-05-21T04:16:29.529Z,101273.23
2023-05-21T04:19:57.264Z,101268.86
2023-05-21T04:23:24.887Z,101266.67
2023-05-21T04:26:52.524Z,101260.30
2023-05-21T04:30:21.050Z,101263.09
2023-05-21T04:33:48.728Z,101260.40
2023-05-21T04:37:16.417Z,101252.52
2023-05-21T04:40:44.191Z,101244.65
2023-05-21T04:44:11.839Z,101238.42
2023-05-21T04:47:39.526Z,101239.41
2023-05-21T04:51:08.298Z,101247.80
2023-05-21T04:54:34.913Z,101253.30
2023-05-21T04:58:02.558Z,101248.17
2023-05-21T05:01:30.194Z,101246.14
2023-05-21T05:04:58.200Z,101244.52
2023-05-21T05:08:25.874Z,101242.46
2023-05-21T05:11:53.538Z,101244.70
2023-05-21T05:15:21.167Z,101243.77
2023-05-21T05:18:48.828Z,101248.29
2023-05-21T05:22:12.366Z,101248.64
2023-05-21T05:25:33.466Z,101251.80
2023-05-21T05:28:51.015Z,101247.25
2023-05-21T05:32:18.736Z,101238.63
2023-05-21T05:35:47.136Z,101243.09
2023-05-21T05:39:07.966Z,101244.42
2023-05-21T05:42:25.469Z,101242.22
2023-05-21T05:45:53.661Z,101241.39
2023-05-21T05:49:21.256Z,101245.98
2023-05-21T05:52:48.139Z,101242.19
2023-05-21T05:56:06.851Z,101235.55
2023-05-21T05:59:27.929Z,101236.58
2023-05-21T06:02:48.568Z,101236.39
2023-05-21T06:06:09.647Z,101233.77
2023-05-21T06:09:35.922Z,101234.71
2023-05-21T06:13:03.646Z,101229.33
2023-05-21T06:16:20.088Z,101234.02
2023-05-21T06:19:47.683Z,101235.35
2023-05-21T06:23:15.796Z,101232.09
2023-05-21T06:26:43.385Z,101238.17
2023-05-21T06:30:11.075Z,101231.31
2023-05-21T06:33:38.907Z,101222.13
2023-05-21T06:37:06.831Z,101220.18
2023-05-21T06:40:34.455Z,101218.67
2023-05-21T06:44:02.161Z,101217.20
2023-05-21T06:47:28.980Z,101213.83
2023-05-21T07:33:51.897Z,101179.54
2023-05-21T07:37:41.259Z,101175.66
2023-05-21T07:41:29.373Z,101169.65
2023-05-21T07:45:18.843Z,101167.47
2023-05-21T07:49:06.923Z,101167.92
2023-05-21T07:53:01.198Z,101159.13
2023-05-21T07:56:49.241Z,101155.61
2023-05-21T08:00:37.319Z,101154.92
2023-05-21T08:04:28.140Z,101159.48
2023-05-21T08:08:14.372Z,101157.36
2023-05-21T08:12:03.070Z,101156.42
2023-05-21T08:15:53.129Z,101154.58
2023-05-21T08:19:42.387Z,101153.48
2023-05-21T08:23:30.382Z,101154.31
2023-05-21T08:27:18.538Z,101154.35
2023-05-21T08:31:07.269Z,101148.68
2023-05-21T08:34:57.746Z,101146.59
2023-05-21T08:38:50.772Z,101140.40
2023-05-21T08:42:41.620Z,101134.69
2023-05-21T08:46:29.756Z,101137.20
2023-05-21T08:50:18.131Z,101134.98
2023-05-21T08:54:06.261Z,101137.02
2023-05-21T08:57:54.288Z,101130.20
2023-05-21T09:01:42.414Z,101129.54
2023-05-21T09:05:12.248Z,101121.20
2023-05-21T09:09:00.264Z,101118.88
2023-05-21T09:12:53.204Z,101115.07
2023-05-21T09:16:34.184Z,101100.83
2023-05-21T09:20:20.930Z,101116.08
2023-05-21T09:24:04.815Z,101115.16
2023-05-21T09:27:53.196Z,101101.91
2023-05-21T09:31:30.431Z,101097.14
2023-05-21T09:35:18.493Z,101098.91
2023-05-21T09:39:06.554Z,101093.63
2023-05-21T09:42:54.538Z,101093.87
2023-05-21T09:46:43.330Z,101094.60
2023-05-21T09:50:20.248Z,101095.05
2023-05-21T09:54:05.593Z,101090.57
2023-05-21T09:57:20.804Z,101076.48
2023-05-21T10:00:42.217Z,101077.94
2023-05-21T10:04:29.079Z,101081.30
2023-05-21T10:08:18.003Z,101076.73
2023-05-21T10:12:06.229Z,101072.48
2023-05-21T10:16:00.457Z,101068.48
2023-05-21T10:19:40.515Z,101071.19
2023-05-21T10:23:28.200Z,101069.63
2023-05-21T10:27:09.014Z,101068.19
2023-05-21T10:30:43.923Z,101062.54
2023-05-21T10:34:31.909Z,101063.02
2023-05-21T10:38:20.974Z,101062.45
2023-05-21T10:42:09.225Z,101067.64
2023-05-21T10:46:10.375Z,101067.69
2023-05-21T10:50:07.371Z,101068.64
2023-05-21T10:54:13.806Z,101068.67
2023-05-21T10:58:23.215Z,101064.35
2023-05-21T11:02:11.273Z,101055.21
2023-05-21T11:05:57.740Z,101060.04
2023-05-21T11:09:51.917Z,101068.48
2023-05-21T11:13:45.904Z,101062.84
2023-05-21T11:17:32.797Z,101053.17
2023-05-21T11:21:20.901Z,101059.72
2023-05-21T11:25:08.641Z,101062.69
2023-05-21T11:28:31.843Z,101064.45
2023-05-21T11:31:40.166Z,101067.79
2023-05-21T11:35:24.873Z,101064.83
2023-05-21T11:39:03.918Z,101061.13
2023-05-21T11:43:10.083Z,101059.09
2023-05-21T11:46:58.139Z,101047.39
2023-05-21T11:50:46.383Z,101047.60
2023-05-21T11:54:34.447Z,101052.42
2023-05-21T11:58:21.191Z,101056.86
2023-05-21T12:02:07.709Z,101054.93
2023-05-21T12:05:56.232Z,101053.73
2023-05-21T12:09:44.262Z,101051.70
2023-05-21T12:13:32.412Z,101050.10
2023-05-21T12:17:13.862Z,101044.83
2023-05-21T12:21:01.876Z,101049.31
2023-05-21T12:24:50.072Z,101051.18
2023-05-21T12:28:38.058Z,101049.77
2023-05-21T12:32:28.880Z,101052.85
2023-05-21T12:36:20.104Z,101050.43
2023-05-21T12:40:08.079Z,101052.91
2023-05-21T12:43:49.237Z,101050.41
2023-05-21T12:47:39.196Z,101046.23
2023-05-21T12:51:27.587Z,101045.27
2023-05-21T12:55:17.097Z,101049.21
2023-05-21T12:59:01.423Z,101045.09
2023-05-21T13:02:49.582Z,101042.98
2023-05-21T13:06:39.371Z,101042.14
2023-05-21T13:10:16.519Z,101044.63
2023-05-21T13:13:47.769Z,101038.27
2023-05-21T13:17:37.790Z,101038.70
2023-05-21T13:21:19.007Z,101027.20
2023-05-21T13:25:22.465Z,101032.30
2023-05-21T13:29:17.400Z,101033.37
2023-05-21T13:33:05.589Z,101030.16
2023-05-21T13:36:53.656Z,101020.98
2023-05-21T13:40:41.964Z,101021.83
2023-05-21T13:44:30.877Z,101020.46
2023-05-21T13:48:21.107Z,101018.84
2023-05-21T13:52:09.357Z,101020.86
2023-05-21T13:55:57.352Z,101031.42
2023-05-21T13:59:45.362Z,101035.73
2023-05-21T14:03:33.426Z,101034.47
2023-05-21T14:07:21.591Z,101028.25
2023-05-21T14:11:09.917Z,101029.25
2023-05-21T14:14:56.837Z,101027.32
2023-05-21T14:18:44.898Z,101023.14
2023-05-21T14:22:33.929Z,101017.91
2023-05-21T14:26:22.860Z,101014.14
2023-05-21T14:29:56.149Z,101019.84
2023-05-21T14:33:44.181Z,101017.63
2023-05-21T14:37:33.671Z,101011.42
2023-05-21T14:41:21.734Z,101010.63
2023-05-21T14:45:18.698Z,101007.39
2023-05-21T14:49:08.888Z,101012.27
2023-05-21T14:52:57.699Z,101006.79
2023-05-21T14:56:47.017Z,100999.52
2023-05-21T15:00:24.207Z,101000.98
2023-05-21T15:04:03.978Z,100999.09
2023-05-21T15:07:51.340Z,101000.77
2023-05-21T15:11:38.309Z,101000.40
2023-05-21T15:14:48.632Z,100995.09
2023-05-21T15:18:14.176Z,100992.52
2023-05-21T15:22:02.276Z,101001.39
2023-05-21T15:25:50.367Z,100995.58
2023-05-21T15:29:39.106Z,100997.68
2023-05-21T15:33:27.160Z,100994.15
2023-05-21T15:37:15.783Z,100990.53
2023-05-21T15:41:03.990Z,100995.41
2023-05-21T15:44:52.682Z,100997.81
2023-05-21T15:48:32.670Z,100997.54
2023-05-21T15:52:15.753Z,100995.26
2023-05-21T15:55:20.995Z,100997.20
2023-05-21T15:58:02.605Z,100997.34
2023-05-21T16:01:42.085Z,100992.41
2023-05-21T16:05:17.917Z,100999.96
2023-05-21T16:08:17.273Z,101003.24
2023-05-21T16:11:24.370Z,100997.30
2023-05-21T16:14:54.923Z,100992.77
2023-05-21T16:18:16.154Z,100996.16
2023-05-21T16:22:03.310Z,100997.82
2023-05-21T16:25:31.829Z,101000.88
2023-05-21T16:29:12.723Z,101000.50
2023-05-21T16:32:54.803Z,100997.66
2023-05-21T16:36:48.924Z,100993.17
2023-05-21T16:40:37.071Z,100993.73
2023-05-21T16:44:18.119Z,100992.25
2023-05-21T16:47:57.995Z,100993.73
2023-05-21T16:51:31.828Z,100990.46
2023-05-21T16:55:19.721Z,100989.20
2023-05-21T16:59:02.026Z,100983.56
2023-05-21T17:02:43.866Z,100983.29
2023-05-21T17:06:31.044Z,100980.30
2023-05-21T17:10:19.652Z,100981.73
2023-05-21T17:14:09.915Z,100980.48
2023-05-21T17:17:51.948Z,100984.77
2023-05-21T17:21:00.391Z,100987.77
2023-05-21T17:24:46.432Z,100984.29
2023-05-21T17:28:34.515Z,100983.41
2023-05-21T17:32:07.979Z,100977.70
2023-05-21T17:35:48.840Z,100972.93
2023-05-21T17:38:31.888Z,100972.41
2023-05-21T17:41:38.318Z,100974.75
2023-05-21T17:44:35.818Z,100976.90
2023-05-21T17:47:25.924Z,100974.02
2023-05-21T17:50:54.755Z,100974.45
2023-05-21T17:54:21.700Z,100971.45
2023-05-21T17:57:51.858Z,100974.48
2023-05-21T18:01:12.902Z,100975.73
2023-05-21T18:04:40.807Z,100976.88
2023-05-21T18:08:00.690Z,100978.05
2023-05-21T18:11:24.677Z,100977.66
2023-05-21T18:14:49.500Z,100978.94
2023-05-21T18:18:19.878Z,100974.98
2023-05-21T18:21:58.191Z,100981.37
2023-05-21T18:25:00.142Z,100982.44
2023-05-21T18:28:49.566Z,100978.77
2023-05-21T18:32:26.860Z,100982.20
2023-05-21T18:36:01.062Z,100980.27
2023-05-21T18:39:50.150Z,100986.35
2023-05-21T18:43:27.023Z,100981.75
2023-05-21T18:47:15.078Z,100982.86
2023-05-21T18:50:52.313Z,100981.98
2023-05-21T18:54:10.759Z,100979.37
2023-05-21T18:57:58.892Z,100975.67
2023-05-21T19:01:46.996Z,100975.23
2023-05-21T19:05:40.961Z,100978.85
2023-05-21T19:09:29.961Z,100977.73
2023-05-21T19:13:16.567Z,100978.73
2023-05-21T19:17:04.606Z,100978.88
2023-05-21T19:20:52.674Z,100972.27
2023-05-21T19:24:39.588Z,100971.15
2023-05-21T19:28:26.231Z,100971.07
2023-05-21T19:32:14.651Z,100969.11
2023-05-21T19:36:02.822Z,100970.11
2023-05-21T19:39:49.690Z,100967.85
2023-05-21T19:43:36.444Z,100965.34
2023-05-21T19:46:46.904Z,100964.93
2023-05-21T19:49:20.085Z,100966.22
2023-05-21T19:52:16.450Z,100965.20
2023-05-21T19:55:46.932Z,100960.95
2023-05-21T19:58:41.056Z,100960.92
2023-05-21T20:01:39.540Z,100964.80
2023-05-21T20:04:59.252Z,100963.50
2023-05-21T20:08:33.647Z,100963.54
2023-05-21T20:11:16.494Z,100965.50
2023-05-21T20:14:50.054Z,100966.40
2023-05-21T20:18:26.826Z,100966.30
2023-05-21T20:21:20.622Z,100965.12
2023-05-21T20:24:11.565Z,100962.73
2023-05-21T20:27:24.635Z,100965.73
2023-05-21T20:30:40.241Z,100967.34
2023-05-21T20:33:25.998Z,100966.09
2023-05-21T20:35:53.287Z,100963.81
2023-05-21T20:39:21.067Z,100967.06
2023-05-21T20:41:50.872Z,100964.73
2023-05-21T20:44:29.382Z,100968.02
2023-05-21T20:46:56.850Z,100963.23
2023-05-21T20:49:25.078Z,100963.81
2023-05-21T20:52:08.740Z,100964.40
2023-05-21T20:54:59.812Z,100966.27
2023-05-21T20:57:32.674Z,100968.77
2023-05-21T21:00:05.857Z,100968.98
2023-05-21T21:03:19.565Z,100966.20
2023-05-21T21:05:57.727Z,100969.89
2023-05-21T21:08:48.775Z,100968.28
2023-05-21T21:12:24.691Z,100972.29
2023-05-21T21:15:25.130Z,100969.73
2023-05-21T21:18:11.837Z,100963.79
2023-05-21T21:20:59.210Z,100961.48
2023-05-21T21:23:51.322Z,100960.20
2023-05-21T21:27:20.678Z,100958.38
2023-05-21T21:30:33.491Z,100955.76
2023-05-21T21:33:28.533Z,100958.15
2023-05-21T21:36:10.130Z,100956.66
2023-05-21T21:38:37.699Z,100958.18
2023-05-21T21:41:08.344Z,100961.48
2023-05-21T21:43:59.121Z,100962.84
2023-05-21T21:47:00.283Z,100962.16
2023-05-21T21:50:34.658Z,100961.14
2023-05-21T21:54:13.380Z,100965.93
2023-05-21T21:57:16.777Z,100961.86
2023-05-21T22:00:57.749Z,100966.73
2023-05-21T22:04:26.004Z,100965.54
2023-05-21T22:07:53.644Z,100969.11
2023-05-21T22:11:33.191Z,100968.41
2023-05-21T22:15:21.213Z,100969.42
2023-05-21T22:19:03.715Z,100966.88
2023-05-21T22:22:45.020Z,100970.14
2023-05-21T22:26:24.831Z,100970.05
2023-05-21T22:29:43.923Z,100967.70
2023-05-21T22:33:31.881Z,100966.50
2023-05-21T22:37:12.811Z,100967.13
2023-05-21T22:40:36.804Z,100965.13
2023-05-21T22:43:57.473Z,100957.48
2023-05-21T22:47:45.530Z,100953.86
2023-05-21T22:50:54.902Z,100951.55
2023-05-21T22:58:40.009Z,100955.38
2023-05-21T23:02:20.943Z,100954.30
2023-05-21T23:05:59.042Z,100955.36
2023-05-21T23:09:37.139Z,100950.48
2023-05-21T23:13:17.819Z,100954.64
2023-05-21T23:17:08.120Z,100951.45
2023-05-21T23:20:53.743Z,100949.15
2023-05-21T23:24:41.740Z,100948.58
2023-05-21T23:28:22.725Z,100951.25
2023-05-21T23:32:10.794Z,100949.14
2023-05-21T23:35:44.578Z,100943.23
2023-05-21T23:38:49.078Z,100942.95
2023-05-21T23:41:35.257Z,100946.63
2023-05-21T23:44:21.142Z,100945.08
2023-05-21T23:46:58.089Z,100945.67
2023-05-21T23:49:53.710Z,100943.56
2023-05-21T23:52:43.009Z,100941.60
2023-05-21T23:55:42.905Z,100935.89
2023-05-21T23:58:29.248Z,100931.63
